sensor_id;sensor_type;location;lat;lon;timestamp;P1;durP1;ratioP1;P2;durP2;ratioP2
4307;SDS011;2167;53.448;9.984;2023-08-31T00:01:09;7.53;;;4.13;;
4307;SDS011;2167;53.448;9.984;2023-08-31T00:03:35;6.87;;;4.60;;
4307;SDS011;2167;53.448;9.984;2023-08-31T00:06:02;8.03;;;4.40;;
4307;SDS011;2167;53.448;9.984;2023-08-31T00:08:33;6.37;;;3.73;;
4307;SDS011;2167;53.448;9.984;2023-08-31T00:11:00;6.83;;;3.90;;
4307;SDS011;2167;53.448;9.984;2023-08-31T00:13:26;6.93;;;4.30;;
4307;SDS011;2167;53.448;9.984;2023-08-31T00:15:55;12.13;;;4.40;;
4307;SDS011;2167;53.448;9.984;2023-08-31T00:18:22;7.47;;;5.00;;
4307;SDS011;2167;53.448;9.984;2023-08-31T00:20:49;11.13;;;5.73;;
4307;SDS011;2167;53.448;9.984;2023-08-31T00:23:15;10.37;;;5.33;;
4307;SDS011;2167;53.448;9.984;2023-08-31T00:25:41;9.83;;;5.33;;
4307;SDS011;2167;53.448;9.984;2023-08-31T00:28:08;8.17;;;5.33;;
4307;SDS011;2167;53.448;9.984;2023-08-31T00:30:34;10.50;;;6.60;;
4307;SDS011;2167;53.448;9.984;2023-08-31T00:33:00;9.37;;;5.60;;
4307;SDS011;2167;53.448;9.984;2023-08-31T00:35:27;11.50;;;6.70;;
4307;SDS011;2167;53.448;9.984;2023-08-31T00:37:53;9.77;;;6.13;;
4307;SDS011;2167;53.448;9.984;2023-08-31T00:40:23;10.50;;;5.93;;
4307;SDS011;2167;53.448;9.984;2023-08-31T00:42:49;13.70;;;6.00;;
4307;SDS011;2167;53.448;9.984;2023-08-31T00:45:16;12.60;;;7.23;;
4307;SDS011;2167;53.448;9.984;2023-08-31T00:47:42;10.13;;;6.57;;
4307;SDS011;2167;53.448;9.984;2023-08-31T00:50:09;11.23;;;6.60;;
4307;SDS011;2167;53.448;9.984;2023-08-31T00:52:35;12.30;;;6.80;;
4307;SDS011;2167;53.448;9.984;2023-08-31T00:55:02;10.13;;;6.17;;
4307;SDS011;2167;53.448;9.984;2023-08-31T00:57:30;9.67;;;6.47;;
4307;SDS011;2167;53.448;9.984;2023-08-31T00:59:56;9.00;;;5.80;;
4307;SDS011;2167;53.448;9.984;2023-08-31T01:02:22;8.17;;;5.50;;
4307;SDS011;2167;53.448;9.984;2023-08-31T01:05:04;7.50;;;4.40;;
4307;SDS011;2167;53.448;9.984;2023-08-31T01:13:14;7.80;;;5.30;;
4307;SDS011;2167;53.448;9.984;2023-08-31T01:15:43;8.40;;;4.93;;
4307;SDS011;2167;53.448;9.984;2023-08-31T01:18:11;11.90;;;5.30;;
4307;SDS011;2167;53.448;9.984;2023-08-31T01:20:58;7.20;;;4.70;;
4307;SDS011;2167;53.448;9.984;2023-08-31T01:23:49;7.13;;;5.00;;
4307;SDS011;2167;53.448;9.984;2023-08-31T01:26:13;4.50;;;3.90;;
4307;SDS011;2167;53.448;9.984;2023-08-31T01:28:39;10.00;;;5.40;;
4307;SDS011;2167;53.448;9.984;2023-08-31T01:31:05;7.30;;;4.90;;
4307;SDS011;2167;53.448;9.984;2023-08-31T01:33:31;7.70;;;4.80;;
4307;SDS011;2167;53.448;9.984;2023-08-31T01:35:57;6.40;;;4.47;;
4307;SDS011;2167;53.448;9.984;2023-08-31T01:38:25;11.00;;;5.27;;
4307;SDS011;2167;53.448;9.984;2023-08-31T01:40:54;6.53;;;4.47;;
4307;SDS011;2167;53.448;9.984;2023-08-31T01:43:22;6.63;;;4.07;;
4307;SDS011;2167;53.448;9.984;2023-08-31T01:45:49;4.97;;;3.67;;
4307;SDS011;2167;53.448;9.984;2023-08-31T01:48:15;6.47;;;4.50;;
4307;SDS011;2167;53.448;9.984;2023-08-31T01:50:41;7.93;;;4.57;;
4307;SDS011;2167;53.448;9.984;2023-08-31T01:53:08;6.43;;;4.87;;
4307;SDS011;2167;53.448;9.984;2023-08-31T01:55:34;6.07;;;3.97;;
4307;SDS011;2167;53.448;9.984;2023-08-31T01:58:01;5.77;;;4.07;;
4307;SDS011;2167;53.448;9.984;2023-08-31T02:00:27;5.33;;;4.77;;
4307;SDS011;2167;53.448;9.984;2023-08-31T02:02:53;6.23;;;4.40;;
4307;SDS011;2167;53.448;9.984;2023-08-31T02:05:19;6.20;;;4.43;;
4307;SDS011;2167;53.448;9.984;2023-08-31T02:07:45;6.83;;;4.13;;
4307;SDS011;2167;53.448;9.984;2023-08-31T02:10:11;9.60;;;4.40;;
4307;SDS011;2167;53.448;9.984;2023-08-31T02:12:37;7.87;;;4.83;;
4307;SDS011;2167;53.448;9.984;2023-08-31T02:15:09;6.57;;;4.23;;
4307;SDS011;2167;53.448;9.984;2023-08-31T02:17:35;8.30;;;4.43;;
4307;SDS011;2167;53.448;9.984;2023-08-31T02:20:01;4.93;;;4.00;;
4307;SDS011;2167;53.448;9.984;2023-08-31T02:22:31;11.53;;;4.63;;
4307;SDS011;2167;53.448;9.984;2023-08-31T02:24:59;7.10;;;5.00;;
4307;SDS011;2167;53.448;9.984;2023-08-31T02:27:26;7.03;;;4.00;;
4307;SDS011;2167;53.448;9.984;2023-08-31T02:29:52;10.90;;;4.97;;
4307;SDS011;2167;53.448;9.984;2023-08-31T02:32:18;5.90;;;4.40;;
4307;SDS011;2167;53.448;9.984;2023-08-31T02:34:44;6.37;;;3.97;;
4307;SDS011;2167;53.448;9.984;2023-08-31T02:37:10;7.40;;;4.90;;
4307;SDS011;2167;53.448;9.984;2023-08-31T02:39:36;13.27;;;4.67;;
4307;SDS011;2167;53.448;9.984;2023-08-31T02:42:02;7.83;;;4.50;;
4307;SDS011;2167;53.448;9.984;2023-08-31T02:44:30;7.47;;;4.30;;
4307;SDS011;2167;53.448;9.984;2023-08-31T02:46:56;6.60;;;4.70;;
4307;SDS011;2167;53.448;9.984;2023-08-31T02:49:22;4.53;;;3.40;;
4307;SDS011;2167;53.448;9.984;2023-08-31T02:51:48;6.70;;;3.70;;
4307;SDS011;2167;53.448;9.984;2023-08-31T02:54:14;8.03;;;3.60;;
4307;SDS011;2167;53.448;9.984;2023-08-31T02:56:40;6.30;;;4.27;;
4307;SDS011;2167;53.448;9.984;2023-08-31T02:59:06;5.97;;;3.73;;
4307;SDS011;2167;53.448;9.984;2023-08-31T03:01:32;8.13;;;4.50;;
4307;SDS011;2167;53.448;9.984;2023-08-31T03:03:59;5.20;;;3.53;;
4307;SDS011;2167;53.448;9.984;2023-08-31T03:06:25;8.23;;;4.50;;
4307;SDS011;2167;53.448;9.984;2023-08-31T03:08:51;7.43;;;3.67;;
4307;SDS011;2167;53.448;9.984;2023-08-31T03:11:17;6.77;;;4.23;;
4307;SDS011;2167;53.448;9.984;2023-08-31T03:13:43;7.63;;;4.03;;
4307;SDS011;2167;53.448;9.984;2023-08-31T03:16:09;6.00;;;3.67;;
4307;SDS011;2167;53.448;9.984;2023-08-31T03:18:35;7.67;;;5.40;;
4307;SDS011;2167;53.448;9.984;2023-08-31T03:21:01;4.07;;;3.23;;
4307;SDS011;2167;53.448;9.984;2023-08-31T03:23:28;7.97;;;4.17;;
4307;SDS011;2167;53.448;9.984;2023-08-31T03:25:57;9.40;;;4.53;;
4307;SDS011;2167;53.448;9.984;2023-08-31T03:28:23;4.43;;;3.23;;
4307;SDS011;2167;53.448;9.984;2023-08-31T03:30:58;7.73;;;3.70;;
4307;SDS011;2167;53.448;9.984;2023-08-31T03:33:24;4.50;;;3.37;;
4307;SDS011;2167;53.448;9.984;2023-08-31T03:35:52;5.33;;;3.40;;
4307;SDS011;2167;53.448;9.984;2023-08-31T03:38:18;4.97;;;3.10;;
4307;SDS011;2167;53.448;9.984;2023-08-31T03:40:52;5.67;;;3.57;;
4307;SDS011;2167;53.448;9.984;2023-08-31T03:43:18;6.17;;;3.40;;
4307;SDS011;2167;53.448;9.984;2023-08-31T03:45:44;3.40;;;2.20;;
4307;SDS011;2167;53.448;9.984;2023-08-31T03:48:13;5.87;;;2.80;;
4307;SDS011;2167;53.448;9.984;2023-08-31T03:50:39;2.70;;;2.40;;
4307;SDS011;2167;53.448;9.984;2023-08-31T03:53:05;3.17;;;2.60;;
4307;SDS011;2167;53.448;9.984;2023-08-31T03:55:31;3.40;;;2.20;;
4307;SDS011;2167;53.448;9.984;2023-08-31T03:57:57;2.77;;;2.40;;
4307;SDS011;2167;53.448;9.984;2023-08-31T04:00:23;3.70;;;2.87;;
4307;SDS011;2167;53.448;9.984;2023-08-31T04:02:49;4.23;;;2.13;;
4307;SDS011;2167;53.448;9.984;2023-08-31T04:05:15;5.40;;;2.43;;
4307;SDS011;2167;53.448;9.984;2023-08-31T04:07:41;3.87;;;2.40;;
4307;SDS011;2167;53.448;9.984;2023-08-31T04:10:10;5.83;;;2.13;;
4307;SDS011;2167;53.448;9.984;2023-08-31T04:12:36;5.53;;;2.10;;
4307;SDS011;2167;53.448;9.984;2023-08-31T04:15:03;5.57;;;2.93;;
4307;SDS011;2167;53.448;9.984;2023-08-31T04:17:29;3.27;;;2.27;;
4307;SDS011;2167;53.448;9.984;2023-08-31T04:19:58;5.80;;;3.13;;
4307;SDS011;2167;53.448;9.984;2023-08-31T04:22:23;4.57;;;1.90;;
4307;SDS011;2167;53.448;9.984;2023-08-31T04:24:51;3.40;;;2.57;;
4307;SDS011;2167;53.448;9.984;2023-08-31T04:27:17;4.53;;;2.70;;
4307;SDS011;2167;53.448;9.984;2023-08-31T04:29:43;7.37;;;3.10;;
4307;SDS011;2167;53.448;9.984;2023-08-31T04:32:09;2.50;;;2.30;;
4307;SDS011;2167;53.448;9.984;2023-08-31T04:34:35;4.63;;;2.50;;
4307;SDS011;2167;53.448;9.984;2023-08-31T04:37:01;9.80;;;3.00;;
4307;SDS011;2167;53.448;9.984;2023-08-31T04:39:27;4.80;;;3.30;;
4307;SDS011;2167;53.448;9.984;2023-08-31T04:41:53;5.87;;;2.70;;
4307;SDS011;2167;53.448;9.984;2023-08-31T04:44:19;10.67;;;3.90;;
4307;SDS011;2167;53.448;9.984;2023-08-31T04:46:45;4.60;;;3.80;;
4307;SDS011;2167;53.448;9.984;2023-08-31T04:49:11;7.13;;;4.13;;
4307;SDS011;2167;53.448;9.984;2023-08-31T04:51:37;9.70;;;4.53;;
4307;SDS011;2167;53.448;9.984;2023-08-31T04:54:04;10.87;;;5.07;;
4307;SDS011;2167;53.448;9.984;2023-08-31T04:56:31;9.03;;;4.93;;
4307;SDS011;2167;53.448;9.984;2023-08-31T04:58:58;8.97;;;4.70;;
4307;SDS011;2167;53.448;9.984;2023-08-31T05:01:24;9.07;;;4.47;;
4307;SDS011;2167;53.448;9.984;2023-08-31T05:03:50;7.87;;;6.17;;
4307;SDS011;2167;53.448;9.984;2023-08-31T05:06:16;14.43;;;6.00;;
4307;SDS011;2167;53.448;9.984;2023-08-31T05:08:42;10.43;;;5.83;;
4307;SDS011;2167;53.448;9.984;2023-08-31T05:11:08;10.30;;;5.20;;
4307;SDS011;2167;53.448;9.984;2023-08-31T05:13:34;10.03;;;6.40;;
4307;SDS011;2167;53.448;9.984;2023-08-31T05:16:00;8.93;;;5.37;;
4307;SDS011;2167;53.448;9.984;2023-08-31T05:18:28;8.70;;;5.10;;
4307;SDS011;2167;53.448;9.984;2023-08-31T05:20:54;9.27;;;5.40;;
4307;SDS011;2167;53.448;9.984;2023-08-31T05:23:19;9.50;;;5.50;;
4307;SDS011;2167;53.448;9.984;2023-08-31T05:25:45;11.30;;;5.50;;
4307;SDS011;2167;53.448;9.984;2023-08-31T05:28:11;8.80;;;5.07;;
4307;SDS011;2167;53.448;9.984;2023-08-31T05:30:47;8.80;;;4.60;;
4307;SDS011;2167;53.448;9.984;2023-08-31T05:33:13;5.90;;;4.00;;
4307;SDS011;2167;53.448;9.984;2023-08-31T05:35:39;8.40;;;4.13;;
4307;SDS011;2167;53.448;9.984;2023-08-31T05:38:05;9.60;;;4.07;;
4307;SDS011;2167;53.448;9.984;2023-08-31T05:40:31;6.43;;;3.70;;
4307;SDS011;2167;53.448;9.984;2023-08-31T05:42:57;6.60;;;4.47;;
4307;SDS011;2167;53.448;9.984;2023-08-31T05:45:23;5.77;;;4.00;;
4307;SDS011;2167;53.448;9.984;2023-08-31T05:47:49;7.07;;;4.20;;
4307;SDS011;2167;53.448;9.984;2023-08-31T05:50:15;5.07;;;3.40;;
4307;SDS011;2167;53.448;9.984;2023-08-31T05:52:41;7.43;;;4.30;;
4307;SDS011;2167;53.448;9.984;2023-08-31T05:55:09;5.07;;;2.97;;
4307;SDS011;2167;53.448;9.984;2023-08-31T05:57:35;5.27;;;3.93;;
4307;SDS011;2167;53.448;9.984;2023-08-31T06:00:02;5.53;;;3.37;;
4307;SDS011;2167;53.448;9.984;2023-08-31T06:02:29;7.00;;;3.10;;
4307;SDS011;2167;53.448;9.984;2023-08-31T06:04:55;4.23;;;2.60;;
4307;SDS011;2167;53.448;9.984;2023-08-31T06:07:21;4.70;;;2.57;;
4307;SDS011;2167;53.448;9.984;2023-08-31T06:09:47;6.30;;;3.10;;
4307;SDS011;2167;53.448;9.984;2023-08-31T06:12:13;5.57;;;3.20;;
4307;SDS011;2167;53.448;9.984;2023-08-31T06:14:39;10.20;;;2.87;;
4307;SDS011;2167;53.448;9.984;2023-08-31T06:17:05;3.37;;;2.83;;
4307;SDS011;2167;53.448;9.984;2023-08-31T06:19:31;5.17;;;3.30;;
4307;SDS011;2167;53.448;9.984;2023-08-31T06:21:57;5.73;;;2.63;;
4307;SDS011;2167;53.448;9.984;2023-08-31T06:24:23;13.83;;;2.97;;
4307;SDS011;2167;53.448;9.984;2023-08-31T06:26:49;7.47;;;3.33;;
4307;SDS011;2167;53.448;9.984;2023-08-31T06:29:15;5.90;;;3.00;;
4307;SDS011;2167;53.448;9.984;2023-08-31T06:31:41;10.30;;;3.03;;
4307;SDS011;2167;53.448;9.984;2023-08-31T06:34:10;6.00;;;3.00;;
4307;SDS011;2167;53.448;9.984;2023-08-31T06:36:36;2.80;;;2.53;;
4307;SDS011;2167;53.448;9.984;2023-08-31T06:39:02;5.70;;;2.77;;
4307;SDS011;2167;53.448;9.984;2023-08-31T06:41:29;6.00;;;3.67;;
4307;SDS011;2167;53.448;9.984;2023-08-31T06:43:55;7.17;;;3.50;;
4307;SDS011;2167;53.448;9.984;2023-08-31T06:46:21;9.43;;;3.47;;
4307;SDS011;2167;53.448;9.984;2023-08-31T06:48:47;15.23;;;3.10;;
4307;SDS011;2167;53.448;9.984;2023-08-31T06:51:14;4.17;;;2.90;;
4307;SDS011;2167;53.448;9.984;2023-08-31T06:53:41;3.70;;;2.57;;
4307;SDS011;2167;53.448;9.984;2023-08-31T06:56:07;3.10;;;2.33;;
4307;SDS011;2167;53.448;9.984;2023-08-31T06:58:37;5.93;;;3.17;;
4307;SDS011;2167;53.448;9.984;2023-08-31T07:01:05;3.40;;;2.23;;
4307;SDS011;2167;53.448;9.984;2023-08-31T07:03:31;3.50;;;3.03;;
4307;SDS011;2167;53.448;9.984;2023-08-31T07:05:57;4.67;;;1.93;;
4307;SDS011;2167;53.448;9.984;2023-08-31T07:08:23;5.00;;;2.03;;
4307;SDS011;2167;53.448;9.984;2023-08-31T07:10:49;2.57;;;2.10;;
4307;SDS011;2167;53.448;9.984;2023-08-31T07:13:18;3.40;;;2.13;;
4307;SDS011;2167;53.448;9.984;2023-08-31T07:15:47;8.40;;;2.03;;
4307;SDS011;2167;53.448;9.984;2023-08-31T07:18:15;2.73;;;1.57;;
4307;SDS011;2167;53.448;9.984;2023-08-31T07:20:41;8.27;;;1.73;;
4307;SDS011;2167;53.448;9.984;2023-08-31T07:23:07;2.97;;;2.30;;
4307;SDS011;2167;53.448;9.984;2023-08-31T07:25:33;6.23;;;2.50;;
4307;SDS011;2167;53.448;9.984;2023-08-31T07:27:59;2.37;;;1.80;;
4307;SDS011;2167;53.448;9.984;2023-08-31T07:30:25;2.37;;;1.50;;
4307;SDS011;2167;53.448;9.984;2023-08-31T07:32:50;2.83;;;1.80;;
4307;SDS011;2167;53.448;9.984;2023-08-31T07:35:16;5.00;;;2.17;;
4307;SDS011;2167;53.448;9.984;2023-08-31T07:37:42;3.50;;;2.33;;
4307;SDS011;2167;53.448;9.984;2023-08-31T07:40:09;3.30;;;1.90;;
4307;SDS011;2167;53.448;9.984;2023-08-31T07:42:35;3.87;;;2.20;;
4307;SDS011;2167;53.448;9.984;2023-08-31T07:45:01;3.97;;;2.50;;
4307;SDS011;2167;53.448;9.984;2023-08-31T07:47:28;1.97;;;1.60;;
4307;SDS011;2167;53.448;9.984;2023-08-31T07:49:53;3.47;;;1.83;;
4307;SDS011;2167;53.448;9.984;2023-08-31T07:52:19;3.40;;;1.97;;
4307;SDS011;2167;53.448;9.984;2023-08-31T07:54:45;2.53;;;1.40;;
4307;SDS011;2167;53.448;9.984;2023-08-31T07:57:11;1.77;;;1.50;;
4307;SDS011;2167;53.448;9.984;2023-08-31T07:59:37;2.00;;;1.40;;
4307;SDS011;2167;53.448;9.984;2023-08-31T08:02:05;4.57;;;1.57;;
4307;SDS011;2167;53.448;9.984;2023-08-31T08:04:32;3.07;;;2.10;;
4307;SDS011;2167;53.448;9.984;2023-08-31T08:06:58;2.97;;;2.00;;
4307;SDS011;2167;53.448;9.984;2023-08-31T08:09:24;6.73;;;2.10;;
4307;SDS011;2167;53.448;9.984;2023-08-31T08:11:50;3.20;;;1.80;;
4307;SDS011;2167;53.448;9.984;2023-08-31T08:14:16;4.53;;;1.90;;
4307;SDS011;2167;53.448;9.984;2023-08-31T08:16:42;3.57;;;1.73;;
4307;SDS011;2167;53.448;9.984;2023-08-31T08:19:08;1.87;;;1.73;;
4307;SDS011;2167;53.448;9.984;2023-08-31T08:21:34;2.00;;;1.53;;
4307;SDS011;2167;53.448;9.984;2023-08-31T08:24:00;3.10;;;1.90;;
4307;SDS011;2167;53.448;9.984;2023-08-31T08:26:26;11.10;;;1.70;;
4307;SDS011;2167;53.448;9.984;2023-08-31T08:28:53;2.40;;;1.67;;
4307;SDS011;2167;53.448;9.984;2023-08-31T08:31:19;3.13;;;1.63;;
4307;SDS011;2167;53.448;9.984;2023-08-31T08:33:45;2.80;;;1.73;;
4307;SDS011;2167;53.448;9.984;2023-08-31T08:36:10;3.83;;;1.80;;
4307;SDS011;2167;53.448;9.984;2023-08-31T08:38:36;2.13;;;1.47;;
4307;SDS011;2167;53.448;9.984;2023-08-31T08:41:05;2.13;;;1.60;;
4307;SDS011;2167;53.448;9.984;2023-08-31T08:43:32;5.03;;;2.10;;
4307;SDS011;2167;53.448;9.984;2023-08-31T08:46:02;3.80;;;1.80;;
4307;SDS011;2167;53.448;9.984;2023-08-31T08:48:30;3.27;;;2.03;;
4307;SDS011;2167;53.448;9.984;2023-08-31T08:50:56;2.90;;;2.10;;
4307;SDS011;2167;53.448;9.984;2023-08-31T08:53:22;7.70;;;2.23;;
4307;SDS011;2167;53.448;9.984;2023-08-31T08:55:48;4.03;;;2.47;;
4307;SDS011;2167;53.448;9.984;2023-08-31T08:58:14;3.87;;;2.33;;
4307;SDS011;2167;53.448;9.984;2023-08-31T09:00:40;6.30;;;2.10;;
4307;SDS011;2167;53.448;9.984;2023-08-31T09:03:07;4.47;;;2.70;;
4307;SDS011;2167;53.448;9.984;2023-08-31T09:05:33;4.20;;;2.30;;
4307;SDS011;2167;53.448;9.984;2023-08-31T09:08:02;3.07;;;2.77;;
4307;SDS011;2167;53.448;9.984;2023-08-31T09:10:36;2.37;;;2.10;;
4307;SDS011;2167;53.448;9.984;2023-08-31T09:13:05;2.40;;;2.07;;
4307;SDS011;2167;53.448;9.984;2023-08-31T09:15:42;3.10;;;2.03;;
4307;SDS011;2167;53.448;9.984;2023-08-31T09:18:13;2.47;;;1.90;;
4307;SDS011;2167;53.448;9.984;2023-08-31T09:20:46;2.33;;;2.13;;
4307;SDS011;2167;53.448;9.984;2023-08-31T09:23:13;3.00;;;1.80;;
4307;SDS011;2167;53.448;9.984;2023-08-31T09:25:43;2.97;;;2.70;;
4307;SDS011;2167;53.448;9.984;2023-08-31T09:28:09;2.37;;;2.17;;
4307;SDS011;2167;53.448;9.984;2023-08-31T09:30:36;2.80;;;2.17;;
4307;SDS011;2167;53.448;9.984;2023-08-31T09:33:03;4.80;;;2.47;;
4307;SDS011;2167;53.448;9.984;2023-08-31T09:35:29;4.33;;;2.17;;
4307;SDS011;2167;53.448;9.984;2023-08-31T09:37:56;3.30;;;1.97;;
4307;SDS011;2167;53.448;9.984;2023-08-31T09:40:22;2.33;;;1.87;;
4307;SDS011;2167;53.448;9.984;2023-08-31T09:42:51;4.27;;;2.20;;
4307;SDS011;2167;53.448;9.984;2023-08-31T09:45:22;4.47;;;2.70;;
4307;SDS011;2167;53.448;9.984;2023-08-31T09:47:51;2.80;;;2.30;;
4307;SDS011;2167;53.448;9.984;2023-08-31T09:50:19;4.53;;;2.60;;
4307;SDS011;2167;53.448;9.984;2023-08-31T09:52:47;9.53;;;2.57;;
4307;SDS011;2167;53.448;9.984;2023-08-31T09:55:13;5.90;;;2.67;;
4307;SDS011;2167;53.448;9.984;2023-08-31T09:57:40;3.33;;;2.70;;
4307;SDS011;2167;53.448;9.984;2023-08-31T10:00:07;2.30;;;1.90;;
4307;SDS011;2167;53.448;9.984;2023-08-31T10:02:33;2.30;;;2.10;;
4307;SDS011;2167;53.448;9.984;2023-08-31T10:04:59;3.53;;;2.27;;
4307;SDS011;2167;53.448;9.984;2023-08-31T10:07:25;2.55;;;2.35;;
4307;SDS011;2167;53.448;9.984;2023-08-31T10:09:51;4.73;;;2.40;;
4307;SDS011;2167;53.448;9.984;2023-08-31T10:12:17;3.90;;;2.50;;
4307;SDS011;2167;53.448;9.984;2023-08-31T10:14:44;2.33;;;2.13;;
4307;SDS011;2167;53.448;9.984;2023-08-31T10:17:12;2.27;;;2.00;;
4307;SDS011;2167;53.448;9.984;2023-08-31T10:19:38;3.77;;;2.07;;
4307;SDS011;2167;53.448;9.984;2023-08-31T10:22:07;2.50;;;2.07;;
4307;SDS011;2167;53.448;9.984;2023-08-31T10:25:01;2.50;;;2.27;;
4307;SDS011;2167;53.448;9.984;2023-08-31T10:27:37;2.80;;;2.10;;
4307;SDS011;2167;53.448;9.984;2023-08-31T10:32:39;3.80;;;2.33;;
4307;SDS011;2167;53.448;9.984;2023-08-31T10:35:08;2.73;;;2.30;;
4307;SDS011;2167;53.448;9.984;2023-08-31T10:37:34;2.20;;;2.00;;
4307;SDS011;2167;53.448;9.984;2023-08-31T10:40:10;3.63;;;2.20;;
4307;SDS011;2167;53.448;9.984;2023-08-31T10:42:45;4.93;;;2.87;;
4307;SDS011;2167;53.448;9.984;2023-08-31T10:45:12;2.90;;;2.60;;
4307;SDS011;2167;53.448;9.984;2023-08-31T10:47:42;8.67;;;2.40;;
4307;SDS011;2167;53.448;9.984;2023-08-31T10:50:21;3.90;;;2.50;;
4307;SDS011;2167;53.448;9.984;2023-08-31T10:52:47;4.20;;;2.10;;
4307;SDS011;2167;53.448;9.984;2023-08-31T10:55:14;2.73;;;2.20;;
4307;SDS011;2167;53.448;9.984;2023-08-31T10:57:42;2.80;;;2.10;;
4307;SDS011;2167;53.448;9.984;2023-08-31T11:00:08;1.97;;;1.63;;
4307;SDS011;2167;53.448;9.984;2023-08-31T11:02:43;1.70;;;1.60;;
4307;SDS011;2167;53.448;9.984;2023-08-31T11:05:10;2.70;;;2.10;;
4307;SDS011;2167;53.448;9.984;2023-08-31T11:07:37;2.53;;;1.90;;
4307;SDS011;2167;53.448;9.984;2023-08-31T11:12:33;4.80;;;2.60;;
4307;SDS011;2167;53.448;9.984;2023-08-31T11:14:59;2.83;;;1.63;;
4307;SDS011;2167;53.448;9.984;2023-08-31T11:17:24;3.10;;;2.60;;
4307;SDS011;2167;53.448;9.984;2023-08-31T11:19:50;5.13;;;2.40;;
4307;SDS011;2167;53.448;9.984;2023-08-31T11:22:17;2.70;;;2.50;;
4307;SDS011;2167;53.448;9.984;2023-08-31T11:24:44;5.93;;;2.27;;
4307;SDS011;2167;53.448;9.984;2023-08-31T11:27:10;2.73;;;1.47;;
4307;SDS011;2167;53.448;9.984;2023-08-31T11:29:36;1.90;;;1.70;;
4307;SDS011;2167;53.448;9.984;2023-08-31T11:32:03;1.50;;;1.40;;
4307;SDS011;2167;53.448;9.984;2023-08-31T11:34:29;1.50;;;1.40;;
4307;SDS011;2167;53.448;9.984;2023-08-31T11:36:56;1.87;;;1.77;;
4307;SDS011;2167;53.448;9.984;2023-08-31T11:39:30;1.33;;;1.20;;
4307;SDS011;2167;53.448;9.984;2023-08-31T11:41:56;1.50;;;1.40;;
4307;SDS011;2167;53.448;9.984;2023-08-31T11:44:23;2.10;;;1.90;;
4307;SDS011;2167;53.448;9.984;2023-08-31T11:46:49;3.60;;;1.70;;
4307;SDS011;2167;53.448;9.984;2023-08-31T11:49:16;7.80;;;2.23;;
4307;SDS011;2167;53.448;9.984;2023-08-31T11:51:43;2.63;;;1.60;;
4307;SDS011;2167;53.448;9.984;2023-08-31T11:54:10;3.20;;;2.20;;
4307;SDS011;2167;53.448;9.984;2023-08-31T11:56:40;1.40;;;1.30;;
4307;SDS011;2167;53.448;9.984;2023-08-31T11:59:08;1.50;;;0.90;;
4307;SDS011;2167;53.448;9.984;2023-08-31T12:01:37;2.87;;;1.50;;
4307;SDS011;2167;53.448;9.984;2023-08-31T12:04:09;1.50;;;1.40;;
4307;SDS011;2167;53.448;9.984;2023-08-31T12:06:38;2.47;;;1.37;;
4307;SDS011;2167;53.448;9.984;2023-08-31T12:09:05;1.20;;;0.90;;
4307;SDS011;2167;53.448;9.984;2023-08-31T12:11:31;10.80;;;2.53;;
4307;SDS011;2167;53.448;9.984;2023-08-31T12:14:31;0.97;;;0.80;;
4307;SDS011;2167;53.448;9.984;2023-08-31T12:16:59;2.67;;;0.90;;
4307;SDS011;2167;53.448;9.984;2023-08-31T12:19:29;1.47;;;0.90;;
4307;SDS011;2167;53.448;9.984;2023-08-31T12:21:55;1.37;;;0.80;;
4307;SDS011;2167;53.448;9.984;2023-08-31T12:24:21;1.60;;;0.80;;
4307;SDS011;2167;53.448;9.984;2023-08-31T12:26:48;1.30;;;0.90;;
4307;SDS011;2167;53.448;9.984;2023-08-31T12:29:14;0.93;;;0.80;;
4307;SDS011;2167;53.448;9.984;2023-08-31T12:31:40;2.07;;;0.70;;
4307;SDS011;2167;53.448;9.984;2023-08-31T12:34:06;0.80;;;0.80;;
4307;SDS011;2167;53.448;9.984;2023-08-31T12:36:32;2.33;;;0.87;;
4307;SDS011;2167;53.448;9.984;2023-08-31T12:38:59;1.43;;;1.10;;
4307;SDS011;2167;53.448;9.984;2023-08-31T12:41:27;1.50;;;0.90;;
4307;SDS011;2167;53.448;9.984;2023-08-31T12:43:53;1.00;;;0.90;;
4307;SDS011;2167;53.448;9.984;2023-08-31T12:46:19;7.00;;;2.00;;
4307;SDS011;2167;53.448;9.984;2023-08-31T12:48:45;1.20;;;0.83;;
4307;SDS011;2167;53.448;9.984;2023-08-31T12:51:14;0.80;;;0.80;;
4307;SDS011;2167;53.448;9.984;2023-08-31T12:53:40;1.57;;;1.03;;
4307;SDS011;2167;53.448;9.984;2023-08-31T12:56:06;2.40;;;1.17;;
4307;SDS011;2167;53.448;9.984;2023-08-31T12:58:32;1.50;;;0.70;;
4307;SDS011;2167;53.448;9.984;2023-08-31T13:00:58;1.30;;;0.53;;
4307;SDS011;2167;53.448;9.984;2023-08-31T13:03:24;2.90;;;0.70;;
4307;SDS011;2167;53.448;9.984;2023-08-31T13:05:50;0.40;;;0.40;;
4307;SDS011;2167;53.448;9.984;2023-08-31T13:08:17;1.13;;;0.50;;
4307;SDS011;2167;53.448;9.984;2023-08-31T13:10:43;0.83;;;0.40;;
4307;SDS011;2167;53.448;9.984;2023-08-31T13:13:09;0.70;;;0.60;;
4307;SDS011;2167;53.448;9.984;2023-08-31T13:15:35;1.73;;;0.50;;
4307;SDS011;2167;53.448;9.984;2023-08-31T13:18:01;0.40;;;0.40;;
4307;SDS011;2167;53.448;9.984;2023-08-31T13:20:27;0.73;;;0.50;;
4307;SDS011;2167;53.448;9.984;2023-08-31T13:22:53;0.73;;;0.40;;
4307;SDS011;2167;53.448;9.984;2023-08-31T13:25:19;0.60;;;0.40;;
4307;SDS011;2167;53.448;9.984;2023-08-31T13:27:45;0.70;;;0.40;;
4307;SDS011;2167;53.448;9.984;2023-08-31T13:30:11;1.40;;;0.70;;
4307;SDS011;2167;53.448;9.984;2023-08-31T13:32:37;0.97;;;0.57;;
4307;SDS011;2167;53.448;9.984;2023-08-31T13:35:04;0.40;;;0.40;;
4307;SDS011;2167;53.448;9.984;2023-08-31T13:37:33;0.47;;;0.40;;
4307;SDS011;2167;53.448;9.984;2023-08-31T13:39:59;1.83;;;0.53;;
4307;SDS011;2167;53.448;9.984;2023-08-31T13:42:26;2.13;;;0.80;;
4307;SDS011;2167;53.448;9.984;2023-08-31T13:44:52;0.40;;;0.40;;
4307;SDS011;2167;53.448;9.984;2023-08-31T13:47:18;0.40;;;0.40;;
4307;SDS011;2167;53.448;9.984;2023-08-31T13:49:43;0.83;;;0.50;;
4307;SDS011;2167;53.448;9.984;2023-08-31T13:52:09;1.00;;;0.70;;
4307;SDS011;2167;53.448;9.984;2023-08-31T13:54:36;1.50;;;0.60;;
4307;SDS011;2167;53.448;9.984;2023-08-31T13:57:03;0.63;;;0.37;;
4307;SDS011;2167;53.448;9.984;2023-08-31T13:59:29;0.60;;;0.50;;
4307;SDS011;2167;53.448;9.984;2023-08-31T14:01:55;0.57;;;0.57;;
4307;SDS011;2167;53.448;9.984;2023-08-31T14:04:21;0.63;;;0.63;;
4307;SDS011;2167;53.448;9.984;2023-08-31T14:06:47;0.90;;;0.60;;
4307;SDS011;2167;53.448;9.984;2023-08-31T14:09:14;0.73;;;0.73;;
4307;SDS011;2167;53.448;9.984;2023-08-31T14:11:40;0.73;;;0.50;;
4307;SDS011;2167;53.448;9.984;2023-08-31T14:14:06;2.10;;;0.67;;
4307;SDS011;2167;53.448;9.984;2023-08-31T14:16:36;1.90;;;0.73;;
4307;SDS011;2167;53.448;9.984;2023-08-31T14:19:05;0.70;;;0.70;;
4307;SDS011;2167;53.448;9.984;2023-08-31T14:21:31;0.73;;;0.50;;
4307;SDS011;2167;53.448;9.984;2023-08-31T14:23:58;0.60;;;0.60;;
4307;SDS011;2167;53.448;9.984;2023-08-31T14:26:24;4.30;;;0.73;;
4307;SDS011;2167;53.448;9.984;2023-08-31T14:28:53;0.60;;;0.60;;
4307;SDS011;2167;53.448;9.984;2023-08-31T14:31:19;0.60;;;0.60;;
4307;SDS011;2167;53.448;9.984;2023-08-31T14:33:46;1.07;;;0.90;;
4307;SDS011;2167;53.448;9.984;2023-08-31T14:36:13;1.23;;;0.80;;
4307;SDS011;2167;53.448;9.984;2023-08-31T14:38:39;1.60;;;0.63;;
4307;SDS011;2167;53.448;9.984;2023-08-31T14:41:05;0.93;;;0.77;;
4307;SDS011;2167;53.448;9.984;2023-08-31T14:43:32;0.80;;;0.80;;
4307;SDS011;2167;53.448;9.984;2023-08-31T14:45:58;1.43;;;0.53;;
4307;SDS011;2167;53.448;9.984;2023-08-31T14:48:25;0.57;;;0.57;;
4307;SDS011;2167;53.448;9.984;2023-08-31T14:50:51;3.93;;;1.10;;
4307;SDS011;2167;53.448;9.984;2023-08-31T14:53:17;1.07;;;0.70;;
4307;SDS011;2167;53.448;9.984;2023-08-31T14:55:49;2.43;;;0.50;;
4307;SDS011;2167;53.448;9.984;2023-08-31T14:58:15;1.53;;;0.90;;
4307;SDS011;2167;53.448;9.984;2023-08-31T15:00:45;1.53;;;0.70;;
4307;SDS011;2167;53.448;9.984;2023-08-31T15:03:11;1.53;;;0.87;;
4307;SDS011;2167;53.448;9.984;2023-08-31T15:05:37;1.53;;;0.60;;
4307;SDS011;2167;53.448;9.984;2023-08-31T15:08:06;0.80;;;0.50;;
4307;SDS011;2167;53.448;9.984;2023-08-31T15:10:32;0.90;;;0.73;;
4307;SDS011;2167;53.448;9.984;2023-08-31T15:12:58;2.07;;;0.70;;
4307;SDS011;2167;53.448;9.984;2023-08-31T15:15:25;1.67;;;0.67;;
4307;SDS011;2167;53.448;9.984;2023-08-31T15:17:52;3.53;;;0.63;;
4307;SDS011;2167;53.448;9.984;2023-08-31T15:20:17;1.70;;;0.70;;
4307;SDS011;2167;53.448;9.984;2023-08-31T15:22:43;6.13;;;0.83;;
4307;SDS011;2167;53.448;9.984;2023-08-31T15:25:10;12.23;;;0.90;;